Terminal Aerodrome Forecast
Issued by NWS Dallas/Fort Worth, TX

Home | Current Version | Previous Version | Text Only | Print | Product List | Glossary On
Versions: 1 2 3 4 5 6 7 8 9 10 11 12 13 14 15 16 17 18 19 20 21 22 23 24 25 26 27 28 29 30
000
FTUS44 KFWD 301123 AAB
TAFACT
TAF AMD
KACT 301123Z 3011/3106 30010G20KT 5SM -RA VCTS OVC020CB
      TEMPO 3012/3013 32015G25KT 3SM TSRA BKN010CB
     FM301500 36006KT P6SM -RA BKN050 OVC100
     FM301900 36006KT P6SM VCSH OVC050
     FM310200 36006KT P6SM BKN100 OVC250=

USA.gov is the U.S. government's official web portal to all federal, state and local government web resources and services.